Songa Opal — V7RO5 — position and weather

sailwx.info

Track history (hours):
 
Tides and Currents Weather Stations Pressure Air Temp Water Temp Dewpoint Dewpoint Depression Visibility Wind Speed Wind Dir Waves Ship Positions

Songa Opal

Last reported at 2015-Apr-01 22:26 UTC. Time now 2015-Apr-02 03:12 UTC.
Position N 46°36' W 125°23'.

Length 144 m; draft 9.4 m.

Type: Ship. MMSI: 538003550.

Date/timePositionNaut miles runAvg speedWind from/ knotsBaromVisibWave heightAir tempDewpointWater temp
2015-Apr-01 22:26N 46°36' W 125°23'1212.3
2015-Apr-01 21:30N 46°24' W 125°22'1212.3
2015-Apr-01 20:33N 46°13' W 125°21'1312.4
2015-Apr-01 19:32N 46°00' W 125°21'1212.3
2015-Apr-01 18:33N 45°48' W 125°21'43811.8
2015-Mar-31 05:33N 38°34' W 124°04'1212.1
2015-Mar-31 04:33N 38°23' W 123°60'1212.0
2015-Mar-31 03:33N 38°11' W 123°55'1211.7
2015-Mar-31 02:33N 37°60' W 123°50'1111.3
2015-Mar-31 01:33N 37°49' W 123°45'1110.7
2015-Mar-31 00:31N 37°39' W 123°41'1210.2
2015-Mar-30 23:22N 37°28' W 123°37'810.4
2015-Mar-30 22:33N 37°20' W 123°33'1210.5
2015-Mar-30 21:27N 37°09' W 123°28'2010.3
2015-Mar-30 19:33N 36°52' W 123°16'1210.8
2015-Mar-30 18:24N 36°41' W 123°08'1111.0
2015-Mar-30 17:23N 36°31' W 123°01'911.1
2015-Mar-30 16:33N 36°23' W 122°55'1111.1
2015-Mar-30 15:33N 36°14' W 122°48'1111.0
2015-Mar-30 14:33N 36°04' W 122°42'1211.2
2015-Mar-30 13:28N 35°53' W 122°34'1311.3
2015-Mar-30 12:16N 35°42' W 122°26'811.1
2015-Mar-30 11:33N 35°35' W 122°21'1411.2
2015-Mar-30 10:20N 35°23' W 122°12'911.1
2015-Mar-30 09:30N 35°15' W 122°07'1311.0
2015-Mar-30 08:18N 35°04' W 121°59'810.9
2015-Mar-30 07:33N 34°57' W 121°54'1110.6
2015-Mar-30 06:33N 34°47' W 121°47'1110.6
2015-Mar-30 05:33N 34°38' W 121°41'1110.6
2015-Mar-30 04:33N 34°29' W 121°34'1111.0
2015-Mar-30 03:33N 34°20' W 121°27'1111.2
2015-Mar-30 02:33N 34°11' W 121°19'1211.6
2015-Mar-30 01:33N 34°01' W 121°11'1211.8
2015-Mar-30 00:33N 33°52' W 121°02'1211.6
2015-Mar-29 23:33N 33°42' W 120°54'1111.3
2015-Mar-29 22:33N 33°33' W 120°46'1110.7
2015-Mar-29 21:33N 33°25' W 120°39'1010.4
2015-Mar-29 20:33N 33°16' W 120°31'1010.3
2015-Mar-29 19:33N 33°08' W 120°24'1010.2
2015-Mar-29 18:33N 32°60' W 120°17'2110.7
2015-Mar-29 16:33N 32°43' W 120°02'1211.6
2015-Mar-29 15:33N 32°33' W 119°53'1211.9
2015-Mar-29 14:33N 32°24' W 119°45'1212.2
2015-Mar-29 13:33N 32°14' W 119°37'1211.5
2015-Mar-29 12:31N 32°05' W 119°28'1212.3
2015-Mar-29 11:33N 31°55' W 119°20'1212.1
2015-Mar-29 10:33N 31°45' W 119°11'1212.4
2015-Mar-29 09:33N 31°35' W 119°03'1212.3
2015-Mar-29 08:33N 31°25' W 118°54'1212.2
2015-Mar-29 07:33N 31°15' W 118°47'1212.1
2015-Mar-29 06:33N 31°05' W 118°38'1212.3
2015-Mar-29 05:33N 30°56' W 118°29'1212.4
2015-Mar-29 04:33N 30°46' W 118°20'1111.1
2015-Mar-29 03:32N 30°37' W 118°13'1111.4
2015-Mar-29 02:32N 30°28' W 118°05'1212.4
2015-Mar-29 01:33N 30°18' W 117°56'3112.5
2015-Mar-28 23:07N 29°53' W 117°35'2512.6
2015-Mar-28 21:07N 29°33' W 117°18'2312.5
2015-Mar-28 19:17N 29°14' W 117°03'1512.6
2015-Mar-28 18:04N 29°02' W 116°52'3212.7
2015-Mar-28 15:33N 28°36' W 116°30'1312.4
2015-Mar-28 14:31N 28°26' W 116°22'1212.7
2015-Mar-28 13:33N 28°16' W 116°14'1312.7
2015-Mar-28 12:33N 28°06' W 116°05'1312.8
2015-Mar-28 11:34N 27°56' W 115°57'1312.9
2015-Mar-28 10:33N 27°45' W 115°48'1312.8
2015-Mar-28 09:31N 27°34' W 115°39'1212.9
2015-Mar-28 08:33N 27°24' W 115°31'1313.1
2015-Mar-28 07:32N 27°14' W 115°22'1313.1
2015-Mar-28 06:33N 27°03' W 115°13'1412.9
2015-Mar-28 05:28N 26°52' W 115°04'1212.9
2015-Mar-28 04:31N 26°42' W 114°56'  
Track history (hours):
 
Tides and Currents Weather Stations Pressure Air Temp Water Temp Dewpoint Dewpoint Depression Visibility Wind Speed Wind Dir Waves Ship Positions

Songa Opal

Last reported at 2015-Apr-01 22:26 UTC. Time now 2015-Apr-02 03:12 UTC.
Position N 46°36' W 125°23'.

Length 144 m; draft 9.4 m.

Type: Ship. MMSI: 538003550.

Date/timePositionNaut miles runAvg speedWind from/ knotsBaromVisibWave heightAir tempDewpointWater temp
2015-Apr-01 22:26N 46°36' W 125°23'1212.3
2015-Apr-01 21:30N 46°24' W 125°22'1212.3
2015-Apr-01 20:33N 46°13' W 125°21'1312.4
2015-Apr-01 19:32N 46°00' W 125°21'1212.3
2015-Apr-01 18:33N 45°48' W 125°21'43811.8
2015-Mar-31 05:33N 38°34' W 124°04'1212.1
2015-Mar-31 04:33N 38°23' W 123°60'1212.0
2015-Mar-31 03:33N 38°11' W 123°55'1211.7
2015-Mar-31 02:33N 37°60' W 123°50'1111.3
2015-Mar-31 01:33N 37°49' W 123°45'1110.7
2015-Mar-31 00:31N 37°39' W 123°41'1210.2
2015-Mar-30 23:22N 37°28' W 123°37'810.4
2015-Mar-30 22:33N 37°20' W 123°33'1210.5
2015-Mar-30 21:27N 37°09' W 123°28'2010.3
2015-Mar-30 19:33N 36°52' W 123°16'1210.8
2015-Mar-30 18:24N 36°41' W 123°08'1111.0
2015-Mar-30 17:23N 36°31' W 123°01'911.1
2015-Mar-30 16:33N 36°23' W 122°55'1111.1
2015-Mar-30 15:33N 36°14' W 122°48'1111.0
2015-Mar-30 14:33N 36°04' W 122°42'1211.2
2015-Mar-30 13:28N 35°53' W 122°34'1311.3
2015-Mar-30 12:16N 35°42' W 122°26'811.1
2015-Mar-30 11:33N 35°35' W 122°21'1411.2
2015-Mar-30 10:20N 35°23' W 122°12'911.1
2015-Mar-30 09:30N 35°15' W 122°07'1311.0
2015-Mar-30 08:18N 35°04' W 121°59'810.9
2015-Mar-30 07:33N 34°57' W 121°54'1110.6
2015-Mar-30 06:33N 34°47' W 121°47'1110.6
2015-Mar-30 05:33N 34°38' W 121°41'1110.6
2015-Mar-30 04:33N 34°29' W 121°34'1111.0
2015-Mar-30 03:33N 34°20' W 121°27'1111.2
2015-Mar-30 02:33N 34°11' W 121°19'1211.6
2015-Mar-30 01:33N 34°01' W 121°11'1211.8
2015-Mar-30 00:33N 33°52' W 121°02'1211.6
2015-Mar-29 23:33N 33°42' W 120°54'1111.3
2015-Mar-29 22:33N 33°33' W 120°46'1110.7
2015-Mar-29 21:33N 33°25' W 120°39'1010.4
2015-Mar-29 20:33N 33°16' W 120°31'1010.3
2015-Mar-29 19:33N 33°08' W 120°24'1010.2
2015-Mar-29 18:33N 32°60' W 120°17'2110.7
2015-Mar-29 16:33N 32°43' W 120°02'1211.6
2015-Mar-29 15:33N 32°33' W 119°53'1211.9
2015-Mar-29 14:33N 32°24' W 119°45'1212.2
2015-Mar-29 13:33N 32°14' W 119°37'1211.5
2015-Mar-29 12:31N 32°05' W 119°28'1212.3
2015-Mar-29 11:33N 31°55' W 119°20'1212.1
2015-Mar-29 10:33N 31°45' W 119°11'1212.4
2015-Mar-29 09:33N 31°35' W 119°03'1212.3
2015-Mar-29 08:33N 31°25' W 118°54'1212.2
2015-Mar-29 07:33N 31°15' W 118°47'1212.1
2015-Mar-29 06:33N 31°05' W 118°38'1212.3
2015-Mar-29 05:33N 30°56' W 118°29'1212.4
2015-Mar-29 04:33N 30°46' W 118°20'1111.1
2015-Mar-29 03:32N 30°37' W 118°13'1111.4
2015-Mar-29 02:32N 30°28' W 118°05'1212.4
2015-Mar-29 01:33N 30°18' W 117°56'3112.5
2015-Mar-28 23:07N 29°53' W 117°35'2512.6
2015-Mar-28 21:07N 29°33' W 117°18'2312.5
2015-Mar-28 19:17N 29°14' W 117°03'1512.6
2015-Mar-28 18:04N 29°02' W 116°52'3212.7
2015-Mar-28 15:33N 28°36' W 116°30'1312.4
2015-Mar-28 14:31N 28°26' W 116°22'1212.7
2015-Mar-28 13:33N 28°16' W 116°14'1312.7
2015-Mar-28 12:33N 28°06' W 116°05'1312.8
2015-Mar-28 11:34N 27°56' W 115°57'1312.9
2015-Mar-28 10:33N 27°45' W 115°48'1312.8
2015-Mar-28 09:31N 27°34' W 115°39'1212.9
2015-Mar-28 08:33N 27°24' W 115°31'1313.1
2015-Mar-28 07:32N 27°14' W 115°22'1313.1
2015-Mar-28 06:33N 27°03' W 115°13'1412.9
2015-Mar-28 05:28N 26°52' W 115°04'1212.9
2015-Mar-28 04:31N 26°42' W 114°56'  

Dump ship's entire track history